createdAt,value
2023-03-06T00:00:02.657Z,0.00
2023-03-06T00:01:03.654Z,0.00
2023-03-06T00:02:03.578Z,0.00
2023-03-06T00:03:02.669Z,0.00
2023-03-06T00:04:03.330Z,0.00
2023-03-06T00:05:03.335Z,0.00
2023-03-06T00:06:03.258Z,0.00
2023-03-06T00:07:03.247Z,0.00
2023-03-06T00:08:03.187Z,0.00
2023-03-06T00:09:03.210Z,0.00
2023-03-06T00:10:03.382Z,0.00
2023-03-06T00:11:03.363Z,0.00
2023-03-06T00:12:03.289Z,-0.10
2023-03-06T00:13:03.236Z,-0.10
2023-03-06T00:14:03.249Z,0.00
2023-03-06T00:15:05.520Z,0.00
2023-03-06T00:16:03.527Z,-0.10
2023-03-06T00:17:03.429Z,0.00
2023-03-06T00:18:03.433Z,0.00
2023-03-06T00:19:03.366Z,-0.10
2023-03-06T00:20:03.360Z,0.00
2023-03-06T00:21:03.326Z,-0.10
2023-03-06T00:22:03.340Z,-0.10
2023-03-06T00:23:03.390Z,-0.10
2023-03-06T00:24:03.448Z,-0.10
2023-03-06T00:25:03.535Z,-0.10
2023-03-06T00:26:03.625Z,-0.10
2023-03-06T00:27:03.600Z,-0.10
2023-03-06T00:28:03.514Z,-0.10
2023-03-06T00:29:02.637Z,-0.10
2023-03-06T00:30:02.668Z,-0.10
2023-03-06T00:31:02.644Z,-0.10
2023-03-06T00:32:02.702Z,-0.10
2023-03-06T00:33:02.715Z,-0.10
2023-03-06T00:34:02.767Z,-0.20
2023-03-06T00:35:02.761Z,-0.20
2023-03-06T00:36:02.768Z,-0.20
2023-03-06T00:37:03.090Z,-0.20
2023-03-06T00:38:03.116Z,-0.20
2023-03-06T00:39:03.056Z,-0.20
2023-03-06T00:40:02.993Z,-0.20
2023-03-06T00:41:03.062Z,-0.20
2023-03-06T00:42:03.055Z,-0.20
2023-03-06T00:43:03.119Z,-0.20
2023-03-06T00:44:03.146Z,-0.20
2023-03-06T00:45:03.125Z,-0.20
2023-03-06T00:46:03.237Z,-0.30
2023-03-06T00:47:03.304Z,-0.30
2023-03-06T00:48:03.224Z,-0.30
2023-03-06T00:49:03.300Z,-0.30
2023-03-06T00:50:03.447Z,-0.30
2023-03-06T00:51:03.346Z,-0.30
2023-03-06T00:52:03.337Z,-0.30
2023-03-06T00:53:03.441Z,-0.30
2023-03-06T00:54:03.352Z,-0.30
2023-03-06T00:55:03.351Z,-0.30
2023-03-06T00:56:03.344Z,-0.30
2023-03-06T00:57:03.473Z,-0.30
2023-03-06T00:58:03.346Z,-0.30
2023-03-06T00:59:03.394Z,-0.30
2023-03-06T01:00:03.296Z,-0.30
2023-03-06T01:01:03.294Z,-0.30
2023-03-06T01:02:03.245Z,-0.30
2023-03-06T01:03:03.256Z,-0.30
2023-03-06T01:04:03.328Z,-0.30
2023-03-06T01:05:03.262Z,-0.30
2023-03-06T01:06:03.324Z,-0.30
2023-03-06T01:07:03.346Z,-0.30
2023-03-06T01:08:03.317Z,-0.30
2023-03-06T01:09:03.312Z,-0.30
2023-03-06T01:10:03.368Z,-0.40
2023-03-06T01:11:03.457Z,-0.40
2023-03-06T01:12:03.488Z,-0.40
2023-03-06T01:13:03.574Z,-0.40
2023-03-06T01:14:03.444Z,-0.40
2023-03-06T01:15:03.555Z,-0.40
2023-03-06T01:16:02.969Z,-0.40
2023-03-06T01:17:03.000Z,-0.50
2023-03-06T01:18:03.031Z,-0.50
2023-03-06T01:19:03.095Z,-0.50
2023-03-06T01:20:03.096Z,-0.50
2023-03-06T01:21:02.992Z,-0.50
2023-03-06T01:22:03.058Z,-0.50
2023-03-06T01:23:03.154Z,-0.50
2023-03-06T01:24:03.166Z,-0.50
2023-03-06T01:25:03.085Z,-0.50
2023-03-06T01:26:03.088Z,-0.60
2023-03-06T01:27:03.026Z,-0.60
2023-03-06T01:28:03.093Z,-0.60
2023-03-06T01:29:03.095Z,-0.60
2023-03-06T01:30:03.054Z,-0.60
2023-03-06T01:31:03.133Z,-0.60
2023-03-06T01:32:03.282Z,-0.60
2023-03-06T01:33:03.242Z,-0.60
2023-03-06T01:34:03.318Z,-0.60
2023-03-06T01:35:03.338Z,-0.60
2023-03-06T01:36:03.245Z,-0.60
2023-03-06T01:37:03.253Z,-0.70
2023-03-06T01:38:03.268Z,-0.70
2023-03-06T01:39:03.175Z,-0.70
2023-03-06T01:40:03.196Z,-0.70
2023-03-06T01:41:03.163Z,-0.70
2023-03-06T01:42:03.294Z,-0.70
2023-03-06T01:43:03.199Z,-0.70
2023-03-06T01:44:03.204Z,-0.80
2023-03-06T01:45:03.192Z,-0.80
2023-03-06T01:46:03.158Z,-0.80
2023-03-06T01:47:03.226Z,-0.80
2023-03-06T01:48:03.277Z,-0.80
2023-03-06T01:49:03.184Z,-0.80
2023-03-06T01:50:03.113Z,-0.80
2023-03-06T01:51:03.119Z,-0.80
2023-03-06T01:52:03.133Z,-0.80
2023-03-06T01:53:03.190Z,-0.90
2023-03-06T01:54:03.194Z,-0.80
2023-03-06T01:55:03.240Z,-0.90
2023-03-06T01:56:03.293Z,-0.90
2023-03-06T01:57:03.291Z,-0.90
2023-03-06T01:58:03.309Z,-0.90
2023-03-06T01:59:03.333Z,-0.90
2023-03-06T02:00:03.268Z,-0.90
2023-03-06T02:01:03.259Z,-1.00
2023-03-06T02:02:03.332Z,-1.00
2023-03-06T02:03:03.352Z,-1.00
2023-03-06T02:04:03.338Z,-1.00
2023-03-06T02:05:03.342Z,-1.00
2023-03-06T02:06:03.247Z,-1.00
2023-03-06T02:07:03.173Z,-1.00
2023-03-06T02:08:03.315Z,-1.00
2023-03-06T02:09:03.416Z,-1.00
2023-03-06T02:10:03.483Z,-1.00
2023-03-06T02:11:03.494Z,-1.00
2023-03-06T02:12:03.464Z,-1.00
2023-03-06T02:13:03.458Z,-1.10
2023-03-06T02:14:03.564Z,-1.10
2023-03-06T02:15:03.544Z,-1.10
2023-03-06T02:16:03.553Z,-1.10
2023-03-06T02:17:03.610Z,-1.10
2023-03-06T02:18:02.715Z,-1.10
2023-03-06T02:19:02.700Z,-1.10
2023-03-06T02:20:02.821Z,-1.10
2023-03-06T02:21:02.817Z,-1.10
2023-03-06T02:22:02.671Z,-1.10
2023-03-06T02:23:03.307Z,-1.10
2023-03-06T02:24:03.312Z,-1.10
2023-03-06T02:25:03.375Z,-1.10
2023-03-06T02:26:03.351Z,-1.10
2023-03-06T02:27:03.437Z,-1.20
2023-03-06T02:28:03.446Z,-1.20
2023-03-06T02:29:03.541Z,-1.20
2023-03-06T02:30:03.430Z,-1.20
2023-03-06T02:31:03.540Z,-1.20
2023-03-06T02:32:03.686Z,-1.20
2023-03-06T02:33:03.629Z,-1.20
2023-03-06T02:34:03.564Z,-1.20
2023-03-06T02:35:03.554Z,-1.20
2023-03-06T02:36:02.726Z,-1.20
2023-03-06T02:37:02.650Z,-1.20
2023-03-06T02:38:02.670Z,-1.20
2023-03-06T02:39:03.108Z,-1.20
2023-03-06T02:40:03.172Z,-1.20
2023-03-06T02:41:03.140Z,-1.20
2023-03-06T02:42:03.262Z,-1.20
2023-03-06T02:43:03.226Z,-1.20
2023-03-06T02:44:03.178Z,-1.20
2023-03-06T02:45:03.211Z,-1.20
2023-03-06T02:46:03.355Z,-1.20
2023-03-06T02:47:03.265Z,-1.10
2023-03-06T02:48:03.240Z,-1.10
2023-03-06T02:49:03.316Z,-1.10
2023-03-06T02:50:03.395Z,-1.10
2023-03-06T02:51:03.268Z,-1.10
2023-03-06T02:52:03.276Z,-1.10
2023-03-06T02:53:03.370Z,-1.10
2023-03-06T02:54:03.486Z,-1.10
2023-03-06T02:55:03.440Z,-1.10
2023-03-06T02:56:03.452Z,-1.10
2023-03-06T02:57:03.510Z,-1.10
2023-03-06T02:58:03.496Z,-1.10
2023-03-06T02:59:03.402Z,-1.00
2023-03-06T03:00:03.445Z,-1.00
2023-03-06T03:01:03.461Z,-1.00
2023-03-06T03:02:03.643Z,-1.00
2023-03-06T03:03:02.673Z,-1.00
2023-03-06T03:04:03.561Z,-1.00
2023-03-06T03:05:02.745Z,-1.00
2023-03-06T03:06:02.729Z,-1.00
2023-03-06T03:07:02.753Z,-1.00
2023-03-06T03:08:02.757Z,-1.00
2023-03-06T03:09:02.779Z,-1.00
2023-03-06T03:10:02.785Z,-0.90
2023-03-06T03:11:02.683Z,-0.90
2023-03-06T03:12:02.812Z,-0.90
2023-03-06T03:13:02.885Z,-0.90
2023-03-06T03:14:02.923Z,-0.90
2023-03-06T03:15:03.036Z,-0.90
2023-03-06T03:16:03.005Z,-0.90
2023-03-06T03:17:03.073Z,-0.90
2023-03-06T03:18:03.103Z,-0.90
2023-03-06T03:19:03.019Z,-0.90
2023-03-06T03:20:03.150Z,-0.90
2023-03-06T03:21:03.113Z,-0.80
2023-03-06T03:22:03.121Z,-0.80
2023-03-06T03:23:03.089Z,-0.80
2023-03-06T03:24:03.074Z,-0.80
2023-03-06T03:25:03.132Z,-0.80
2023-03-06T03:26:03.117Z,-0.80
2023-03-06T03:27:03.051Z,-0.80
2023-03-06T03:28:03.057Z,-0.80
2023-03-06T03:29:03.018Z,-0.80
2023-03-06T03:30:03.040Z,-0.80
2023-03-06T03:31:03.117Z,-0.70
2023-03-06T03:32:03.031Z,-0.70
2023-03-06T03:33:03.110Z,-0.70
2023-03-06T03:34:03.015Z,-0.70
2023-03-06T03:35:02.991Z,-0.70
2023-03-06T03:36:03.066Z,-0.70
2023-03-06T03:37:03.037Z,-0.70
2023-03-06T03:38:03.041Z,-0.70
2023-03-06T03:39:03.015Z,-0.70
2023-03-06T03:40:03.090Z,-0.70
2023-03-06T03:41:03.096Z,-0.70
2023-03-06T03:42:03.117Z,-0.70
2023-03-06T03:43:03.108Z,-0.70
2023-03-06T03:44:03.092Z,-0.70
2023-03-06T03:45:03.116Z,-0.70
2023-03-06T03:46:03.264Z,-0.70
2023-03-06T03:47:03.126Z,-0.70
2023-03-06T03:48:03.058Z,-0.70
2023-03-06T03:49:03.098Z,-0.70
2023-03-06T03:50:03.211Z,-0.70
2023-03-06T03:51:03.253Z,-0.70
2023-03-06T03:52:03.276Z,-0.70
2023-03-06T03:53:03.424Z,-0.70
2023-03-06T03:54:03.343Z,-0.70
2023-03-06T03:55:03.340Z,-0.70
2023-03-06T03:56:03.310Z,-0.70
2023-03-06T03:57:03.348Z,-0.70
2023-03-06T03:58:03.388Z,-0.70
2023-03-06T03:59:03.472Z,-0.70
2023-03-06T04:00:03.466Z,-0.70
2023-03-06T04:01:03.499Z,-0.70
2023-03-06T04:02:03.540Z,-0.70
2023-03-06T04:03:03.544Z,-0.70
2023-03-06T04:04:03.593Z,-0.80
2023-03-06T04:05:02.721Z,-0.80
2023-03-06T04:06:02.686Z,-0.80
2023-03-06T04:07:03.618Z,-0.80
2023-03-06T04:08:02.620Z,-0.80
2023-03-06T04:09:02.617Z,-0.80
2023-03-06T04:10:02.694Z,-0.80
2023-03-06T04:11:02.622Z,-0.80
2023-03-06T04:12:03.658Z,-0.80
2023-03-06T04:13:03.522Z,-0.80
2023-03-06T04:14:03.563Z,-0.80
2023-03-06T04:15:03.633Z,-0.80
2023-03-06T04:16:03.674Z,-0.80
2023-03-06T04:17:02.640Z,-0.80
2023-03-06T04:18:02.712Z,-0.80
2023-03-06T04:19:02.683Z,-0.80
2023-03-06T04:20:02.757Z,-0.80
2023-03-06T04:21:02.706Z,-0.80
2023-03-06T04:22:02.724Z,-0.80
2023-03-06T04:23:02.721Z,-0.80
2023-03-06T04:24:02.794Z,-0.80
2023-03-06T04:25:02.820Z,-0.80
2023-03-06T04:26:02.915Z,-0.80
2023-03-06T04:27:02.917Z,-0.80
2023-03-06T04:28:02.872Z,-0.80
2023-03-06T04:29:03.366Z,-0.80
2023-03-06T04:30:03.462Z,-0.80
2023-03-06T04:31:03.443Z,-0.80
2023-03-06T04:32:03.650Z,-0.80
2023-03-06T04:33:03.543Z,-0.80
2023-03-06T04:34:03.506Z,-0.80
2023-03-06T04:35:03.538Z,-0.80
2023-03-06T04:36:03.545Z,-0.80
2023-03-06T04:37:02.695Z,-0.70
2023-03-06T04:38:02.801Z,-0.70
2023-03-06T04:39:03.007Z,-0.70
2023-03-06T04:40:02.850Z,-0.70
2023-03-06T04:41:02.936Z,-0.70
2023-03-06T04:42:02.818Z,-0.70
2023-03-06T04:43:02.940Z,-0.70
2023-03-06T04:44:02.911Z,-0.70
2023-03-06T04:45:03.016Z,-0.70
2023-03-06T04:46:03.167Z,-0.70
2023-03-06T04:47:03.174Z,-0.70
2023-03-06T04:48:03.232Z,-0.70
2023-03-06T04:49:03.290Z,-0.70
2023-03-06T04:50:03.092Z,-0.70
2023-03-06T04:51:02.977Z,-0.70
2023-03-06T04:52:03.058Z,-0.70
2023-03-06T04:53:03.036Z,-0.70
2023-03-06T04:54:02.911Z,-0.70
2023-03-06T04:55:03.016Z,-0.70
2023-03-06T04:56:02.945Z,-0.70
2023-03-06T04:57:03.009Z,-0.70
2023-03-06T04:58:03.273Z,-0.70
2023-03-06T04:59:03.043Z,-0.70
2023-03-06T05:00:03.065Z,-0.70
2023-03-06T05:01:03.190Z,-0.70
2023-03-06T05:02:03.178Z,-0.60
2023-03-06T05:03:03.242Z,-0.70
2023-03-06T05:04:03.229Z,-0.60
2023-03-06T05:05:03.260Z,-0.60
2023-03-06T05:06:03.251Z,-0.60
2023-03-06T05:07:03.318Z,-0.60
2023-03-06T05:08:03.440Z,-0.60
2023-03-06T05:09:03.463Z,-0.60
2023-03-06T05:10:03.475Z,-0.60
2023-03-06T05:11:03.435Z,-0.60
2023-03-06T05:12:03.572Z,-0.60
2023-03-06T05:13:03.602Z,-0.60
2023-03-06T05:14:03.602Z,-0.60
2023-03-06T05:15:03.559Z,-0.60
2023-03-06T05:16:03.602Z,-0.60
2023-03-06T05:17:03.628Z,-0.60
2023-03-06T05:18:03.646Z,-0.60
2023-03-06T05:19:02.657Z,-0.60
2023-03-06T05:20:02.736Z,-0.60
2023-03-06T05:21:02.726Z,-0.60
2023-03-06T05:22:02.621Z,-0.60
2023-03-06T05:23:02.660Z,-0.60
2023-03-06T05:24:03.573Z,-0.60
2023-03-06T05:25:02.907Z,-0.50
2023-03-06T05:26:02.992Z,-0.50
2023-03-06T05:27:03.051Z,-0.50
2023-03-06T05:28:03.086Z,-0.50
2023-03-06T05:29:03.147Z,-0.50
2023-03-06T05:30:03.591Z,-0.50
2023-03-06T05:31:03.449Z,-0.50
2023-03-06T05:32:02.789Z,-0.50
2023-03-06T05:33:02.753Z,-0.50
2023-03-06T05:34:02.675Z,-0.50
2023-03-06T05:35:02.759Z,-0.50
2023-03-06T05:36:02.773Z,-0.50
2023-03-06T05:37:02.834Z,-0.50
2023-03-06T05:38:02.945Z,-0.50
2023-03-06T05:39:02.954Z,-0.50
2023-03-06T05:40:02.959Z,-0.40
2023-03-06T05:41:03.022Z,-0.40
2023-03-06T05:42:03.035Z,-0.40
2023-03-06T05:43:03.015Z,-0.40
2023-03-06T05:44:03.037Z,-0.40
2023-03-06T05:45:03.054Z,-0.40
2023-03-06T05:46:03.300Z,-0.40
2023-03-06T05:47:03.135Z,-0.40
2023-03-06T05:48:03.164Z,-0.40
2023-03-06T05:49:03.148Z,-0.40
2023-03-06T05:50:03.164Z,-0.30
2023-03-06T05:51:03.290Z,-0.40
2023-03-06T05:52:03.238Z,-0.30
2023-03-06T05:53:03.228Z,-0.30
2023-03-06T05:54:03.279Z,-0.30
2023-03-06T05:55:03.261Z,-0.30
2023-03-06T05:56:03.318Z,-0.30
2023-03-06T05:57:03.276Z,-0.30
2023-03-06T05:58:03.245Z,-0.30
2023-03-06T05:59:03.362Z,-0.30
2023-03-06T06:00:03.503Z,-0.30
2023-03-06T06:01:03.583Z,-0.30
2023-03-06T06:02:03.636Z,-0.30
2023-03-06T06:03:02.626Z,-0.30
2023-03-06T06:04:02.694Z,-0.30
2023-03-06T06:05:02.729Z,-0.30
2023-03-06T06:06:03.647Z,-0.30
2023-03-06T06:07:03.570Z,-0.30
2023-03-06T06:08:02.673Z,-0.30
2023-03-06T06:09:02.687Z,-0.30
2023-03-06T06:10:03.995Z,-0.30
2023-03-06T06:11:03.662Z,-0.20
2023-03-06T06:12:02.665Z,-0.20
2023-03-06T06:13:03.664Z,-0.30
2023-03-06T06:14:02.782Z,-0.30
2023-03-06T06:15:02.820Z,-0.20
2023-03-06T06:16:02.816Z,-0.30
2023-03-06T06:17:02.898Z,-0.20
2023-03-06T06:18:02.829Z,-0.30
2023-03-06T06:19:02.847Z,-0.20
2023-03-06T06:20:02.852Z,-0.20
2023-03-06T06:21:02.803Z,-0.20
2023-03-06T06:22:02.879Z,-0.20
2023-03-06T06:23:02.890Z,-0.20
2023-03-06T06:24:02.841Z,-0.20
2023-03-06T06:25:02.966Z,-0.20
2023-03-06T06:26:02.915Z,-0.20
2023-03-06T06:27:03.918Z,-0.20
2023-03-06T06:28:02.917Z,-0.20
2023-03-06T06:29:02.994Z,-0.20
2023-03-06T06:30:02.960Z,-0.20
2023-03-06T06:31:02.899Z,-0.20
2023-03-06T06:32:02.922Z,-0.10
2023-03-06T06:33:02.803Z,-0.10
2023-03-06T06:34:02.837Z,-0.20
2023-03-06T06:35:02.740Z,-0.10
2023-03-06T06:36:02.798Z,-0.10
2023-03-06T06:37:02.953Z,-0.10
2023-03-06T06:38:02.934Z,-0.10
2023-03-06T06:39:02.997Z,-0.10
2023-03-06T06:40:02.980Z,0.00
2023-03-06T06:41:27.100Z,0.00
2023-03-06T06:42:26.315Z,0.00
2023-03-06T06:43:03.360Z,0.00
2023-03-06T06:44:03.382Z,0.00
2023-03-06T06:45:03.353Z,0.10
2023-03-06T06:46:19.788Z,0.10
2023-03-06T06:47:22.669Z,0.10
2023-03-06T06:48:03.479Z,0.20
2023-03-06T06:49:03.398Z,0.20
2023-03-06T06:50:03.417Z,0.20
2023-03-06T06:51:03.516Z,0.20
2023-03-06T06:52:03.470Z,0.30
2023-03-06T06:53:03.457Z,0.30
2023-03-06T06:54:03.438Z,0.30
2023-03-06T06:55:03.542Z,0.30
2023-03-06T06:56:03.464Z,0.40
2023-03-06T06:57:03.453Z,0.40
2023-03-06T06:58:03.614Z,0.40
2023-03-06T06:59:15.947Z,0.40
2023-03-06T07:00:03.636Z,0.50
2023-03-06T07:01:03.613Z,0.50
2023-03-06T07:02:03.606Z,0.50
2023-03-06T07:03:03.595Z,0.50
2023-03-06T07:04:03.613Z,0.50
2023-03-06T07:05:04.868Z,0.50
2023-03-06T07:06:02.867Z,0.50
2023-03-06T07:07:02.817Z,0.60
2023-03-06T07:08:02.782Z,0.60
2023-03-06T07:09:02.732Z,0.60
2023-03-06T07:10:02.775Z,0.60
2023-03-06T07:11:02.820Z,0.60
2023-03-06T07:12:02.711Z,0.60
2023-03-06T07:13:02.860Z,0.60
2023-03-06T07:14:02.881Z,0.70
2023-03-06T07:15:02.975Z,0.70
2023-03-06T07:16:03.071Z,0.70
2023-03-06T07:17:03.216Z,0.70
2023-03-06T07:18:03.158Z,0.70
2023-03-06T07:19:03.066Z,0.70
2023-03-06T07:20:03.116Z,0.70
2023-03-06T07:21:03.077Z,0.70
2023-03-06T07:22:03.143Z,0.70
2023-03-06T07:23:03.259Z,0.70
2023-03-06T07:24:03.264Z,0.70
2023-03-06T07:25:03.442Z,0.70
2023-03-06T07:26:03.355Z,0.70
2023-03-06T07:27:03.404Z,0.70
2023-03-06T07:28:03.387Z,0.70
2023-03-06T07:29:03.418Z,0.70
2023-03-06T07:30:03.285Z,0.80
2023-03-06T07:31:03.423Z,0.80
2023-03-06T07:32:03.408Z,0.80
2023-03-06T07:33:03.492Z,0.80
2023-03-06T07:34:04.885Z,0.80
2023-03-06T07:35:18.926Z,0.80
2023-03-06T07:36:02.752Z,0.80
2023-03-06T07:37:03.680Z,0.80
2023-03-06T07:38:02.695Z,0.80
2023-03-06T07:39:02.665Z,0.90
2023-03-06T07:40:02.714Z,0.90
2023-03-06T07:41:02.985Z,0.90
2023-03-06T07:42:03.033Z,0.90
2023-03-06T07:43:17.090Z,0.90
2023-03-06T07:44:03.080Z,0.90
2023-03-06T07:45:02.998Z,1.00
2023-03-06T07:46:03.084Z,1.00
2023-03-06T07:47:02.999Z,1.00
2023-03-06T07:48:05.546Z,1.00
2023-03-06T07:49:03.657Z,1.00
2023-03-06T07:50:03.572Z,1.10
2023-03-06T07:51:02.665Z,1.10
2023-03-06T07:52:02.778Z,1.10
2023-03-06T07:53:02.733Z,1.10
2023-03-06T07:54:02.718Z,1.20
2023-03-06T07:55:03.387Z,1.20
2023-03-06T07:56:03.594Z,1.20
2023-03-06T07:57:03.577Z,1.20
2023-03-06T07:58:02.659Z,1.30
2023-03-06T07:59:02.643Z,1.30
2023-03-06T08:00:03.609Z,1.30
2023-03-06T08:01:02.691Z,1.30
2023-03-06T08:02:02.762Z,1.40
2023-03-06T08:03:02.744Z,1.40
2023-03-06T08:04:02.883Z,1.40
2023-03-06T08:05:02.906Z,1.50
2023-03-06T08:06:02.915Z,1.50
2023-03-06T08:07:02.916Z,1.50
2023-03-06T08:08:02.891Z,1.60
2023-03-06T08:09:02.892Z,1.60
2023-03-06T08:10:02.939Z,1.70
2023-03-06T08:11:02.971Z,1.70
2023-03-06T08:12:03.099Z,1.80
2023-03-06T08:13:03.151Z,1.80
2023-03-06T08:14:03.103Z,1.90
2023-03-06T08:15:03.265Z,1.90
2023-03-06T08:16:03.245Z,2.00
2023-03-06T08:17:03.211Z,2.00
2023-03-06T08:18:03.230Z,2.10
2023-03-06T08:19:03.336Z,2.10
2023-03-06T08:20:03.440Z,2.20
2023-03-06T08:21:03.437Z,2.20
2023-03-06T08:22:03.486Z,2.30
2023-03-06T08:23:03.520Z,2.40
2023-03-06T08:24:03.547Z,2.40
2023-03-06T08:25:03.542Z,2.50
2023-03-06T08:26:03.582Z,2.50
2023-03-06T08:27:03.610Z,2.50
2023-03-06T08:28:03.554Z,2.60
2023-03-06T08:29:03.592Z,2.60
2023-03-06T08:30:02.671Z,2.70
2023-03-06T08:31:02.611Z,2.70
2023-03-06T08:32:02.722Z,2.70
2023-03-06T08:33:02.903Z,2.80
2023-03-06T08:34:02.892Z,2.80
2023-03-06T08:35:02.950Z,2.90
2023-03-06T08:36:02.952Z,2.90
2023-03-06T08:37:03.069Z,3.00
2023-03-06T08:38:03.018Z,3.00
2023-03-06T08:39:03.467Z,3.00
2023-03-06T08:40:03.659Z,3.10
2023-03-06T08:41:02.619Z,3.10
2023-03-06T08:42:02.693Z,3.20
2023-03-06T08:43:02.725Z,3.20
2023-03-06T08:44:03.032Z,3.20
2023-03-06T08:45:03.165Z,3.30
2023-03-06T08:46:03.325Z,3.30
2023-03-06T08:47:03.242Z,3.30
2023-03-06T08:48:03.249Z,3.30
2023-03-06T08:49:03.216Z,3.30
2023-03-06T08:50:03.136Z,3.30
2023-03-06T08:51:03.110Z,3.40
2023-03-06T08:52:03.144Z,3.40
2023-03-06T08:53:03.065Z,3.40
2023-03-06T08:54:03.190Z,3.40
2023-03-06T08:55:03.246Z,3.40
2023-03-06T08:56:03.268Z,3.40
2023-03-06T08:57:03.274Z,3.40
2023-03-06T08:58:03.260Z,3.40
2023-03-06T08:59:03.156Z,3.40
2023-03-06T09:00:03.298Z,3.40
2023-03-06T09:01:03.380Z,3.40
2023-03-06T09:02:03.386Z,3.40
2023-03-06T09:03:03.447Z,3.40
2023-03-06T09:04:03.380Z,3.40
2023-03-06T09:05:03.340Z,3.40
2023-03-06T09:06:03.427Z,3.40
2023-03-06T09:07:03.552Z,3.40
2023-03-06T09:08:03.487Z,3.40
2023-03-06T09:09:03.628Z,3.40
2023-03-06T09:10:03.524Z,3.40
2023-03-06T09:11:02.650Z,3.40
2023-03-06T09:12:02.749Z,3.40
2023-03-06T09:13:02.749Z,3.40
2023-03-06T09:14:02.738Z,3.40
2023-03-06T09:15:02.785Z,3.40
2023-03-06T09:16:02.823Z,3.40
2023-03-06T09:17:02.961Z,3.40
2023-03-06T09:18:03.058Z,3.40
2023-03-06T09:19:02.910Z,3.40
2023-03-06T09:20:03.010Z,3.40
2023-03-06T09:21:03.077Z,3.40
2023-03-06T09:22:02.986Z,3.40
2023-03-06T09:23:03.053Z,3.40
2023-03-06T09:24:03.098Z,3.40
2023-03-06T09:25:03.068Z,3.40
2023-03-06T09:26:03.032Z,3.30
2023-03-06T09:27:03.005Z,3.30
2023-03-06T09:28:11.168Z,3.30
2023-03-06T09:29:02.956Z,3.30
2023-03-06T09:30:03.040Z,3.30
2023-03-06T09:31:03.010Z,3.30
2023-03-06T09:32:03.092Z,3.30
2023-03-06T09:33:02.980Z,3.30
2023-03-06T09:34:03.021Z,3.30
2023-03-06T09:35:03.104Z,3.30
2023-03-06T09:36:03.285Z,3.30
2023-03-06T09:37:03.265Z,3.30
2023-03-06T09:38:03.158Z,3.30
2023-03-06T09:39:03.217Z,3.30
2023-03-06T09:40:03.208Z,3.40
2023-03-06T09:41:03.096Z,3.40
2023-03-06T09:42:02.992Z,3.40
2023-03-06T09:43:03.029Z,3.40
2023-03-06T09:44:03.018Z,3.40
2023-03-06T09:45:02.942Z,3.50
2023-03-06T09:46:03.020Z,3.50
2023-03-06T09:47:02.974Z,3.50
2023-03-06T09:48:02.905Z,3.50
2023-03-06T09:49:03.009Z,3.60
2023-03-06T09:50:02.945Z,3.60
2023-03-06T09:51:02.994Z,3.60
2023-03-06T09:52:02.874Z,3.60
2023-03-06T09:53:02.991Z,3.60
2023-03-06T09:54:02.981Z,3.60
2023-03-06T09:55:03.115Z,3.70
2023-03-06T09:56:03.063Z,3.70
2023-03-06T09:57:03.060Z,3.70
2023-03-06T09:58:04.560Z,3.70
2023-03-06T09:59:03.232Z,3.80
2023-03-06T10:00:04.556Z,3.80
2023-03-06T10:01:03.240Z,3.80
2023-03-06T10:02:03.260Z,3.80
2023-03-06T10:03:03.187Z,3.80
2023-03-06T10:04:03.189Z,3.90
2023-03-06T10:05:03.224Z,3.90
2023-03-06T10:06:03.109Z,4.00
2023-03-06T10:07:03.191Z,4.00
2023-03-06T10:08:03.260Z,4.00
2023-03-06T10:09:03.371Z,4.00
2023-03-06T10:10:03.351Z,4.00
2023-03-06T10:11:03.301Z,4.00
2023-03-06T10:12:03.339Z,4.00
2023-03-06T10:13:03.361Z,4.00
2023-03-06T10:14:03.382Z,4.00
2023-03-06T10:15:03.388Z,4.00
2023-03-06T10:16:03.267Z,4.10
2023-03-06T10:17:03.277Z,4.10
2023-03-06T10:18:03.483Z,4.10
2023-03-06T10:19:03.400Z,4.10
2023-03-06T10:20:03.538Z,4.10
2023-03-06T10:21:17.243Z,4.20
2023-03-06T10:22:03.563Z,4.20
2023-03-06T10:23:05.054Z,4.20
2023-03-06T10:24:02.635Z,4.20
2023-03-06T10:25:02.690Z,4.20
2023-03-06T10:26:02.796Z,4.20
2023-03-06T10:27:02.775Z,4.20
2023-03-06T10:28:02.898Z,4.20
2023-03-06T10:29:02.877Z,4.20
2023-03-06T10:30:03.952Z,4.20
2023-03-06T10:31:02.976Z,4.20
2023-03-06T10:32:02.964Z,4.20
2023-03-06T10:33:03.140Z,4.20
2023-03-06T10:34:03.096Z,4.20
2023-03-06T10:35:03.140Z,4.20
2023-03-06T10:36:03.183Z,4.30
2023-03-06T10:37:03.198Z,4.30
2023-03-06T10:38:03.558Z,4.30
2023-03-06T10:39:03.574Z,4.30
2023-03-06T10:40:03.678Z,4.30
2023-03-06T10:41:03.560Z,4.30
2023-03-06T10:42:02.701Z,4.30
2023-03-06T10:43:11.280Z,4.30
2023-03-06T10:44:02.661Z,4.30
2023-03-06T10:45:02.663Z,4.20
2023-03-06T10:46:02.770Z,4.20
2023-03-06T10:47:02.836Z,4.20
2023-03-06T10:48:02.766Z,4.20
2023-03-06T10:49:02.712Z,4.20
2023-03-06T10:50:02.761Z,4.20
2023-03-06T10:51:09.755Z,4.20
2023-03-06T10:52:02.822Z,4.20
2023-03-06T10:53:02.842Z,4.20
2023-03-06T10:54:02.703Z,4.20
2023-03-06T10:55:02.792Z,4.20
2023-03-06T10:56:02.781Z,4.20
2023-03-06T10:57:02.778Z,4.20
2023-03-06T10:58:03.325Z,4.20
2023-03-06T10:59:03.265Z,4.20
2023-03-06T11:00:03.474Z,4.20
2023-03-06T11:01:03.435Z,4.10
2023-03-06T11:02:03.434Z,4.10
2023-03-06T11:03:03.330Z,4.10
2023-03-06T11:04:03.366Z,4.10
2023-03-06T11:05:03.524Z,4.10
2023-03-06T11:06:03.582Z,4.10
2023-03-06T11:07:03.608Z,4.10
2023-03-06T11:08:03.588Z,4.10
2023-03-06T11:09:02.688Z,4.10
2023-03-06T11:10:02.645Z,4.10
2023-03-06T11:11:02.725Z,4.10
2023-03-06T11:12:02.620Z,4.20
2023-03-06T11:13:02.602Z,4.20
2023-03-06T11:14:02.612Z,4.20
2023-03-06T11:15:02.766Z,4.20
2023-03-06T11:16:02.966Z,4.30
2023-03-06T11:17:02.897Z,4.30
2023-03-06T11:18:02.891Z,4.30
2023-03-06T11:19:02.834Z,4.40
2023-03-06T11:20:02.979Z,4.40
2023-03-06T11:21:02.985Z,4.40
2023-03-06T11:22:03.031Z,4.50
2023-03-06T11:23:02.999Z,4.50
2023-03-06T11:24:03.019Z,4.50
2023-03-06T11:25:02.964Z,4.50
2023-03-06T11:26:03.126Z,4.60
2023-03-06T11:27:02.980Z,4.60
2023-03-06T11:28:03.020Z,4.60
2023-03-06T11:29:03.459Z,4.60
2023-03-06T11:30:03.365Z,4.70
2023-03-06T11:31:03.411Z,4.70
2023-03-06T11:32:03.394Z,4.70
2023-03-06T11:33:03.310Z,4.80
2023-03-06T11:34:03.161Z,4.80
2023-03-06T11:35:03.265Z,4.80
2023-03-06T11:36:04.337Z,4.80
2023-03-06T11:37:03.404Z,4.80
2023-03-06T11:38:03.352Z,4.80
2023-03-06T11:39:03.360Z,4.90
2023-03-06T11:40:03.377Z,4.90
2023-03-06T11:41:03.337Z,4.90
2023-03-06T11:42:03.190Z,4.90
2023-03-06T11:43:03.155Z,4.90
2023-03-06T11:44:03.173Z,5.00
2023-03-06T11:45:03.406Z,5.00
2023-03-06T11:46:03.356Z,5.10
2023-03-06T11:47:03.234Z,5.10
2023-03-06T11:48:03.230Z,5.10
2023-03-06T11:49:03.273Z,5.10
2023-03-06T11:50:03.301Z,5.20
2023-03-06T11:51:03.947Z,5.20
2023-03-06T11:52:03.570Z,5.20
2023-03-06T11:53:03.456Z,5.30
2023-03-06T11:54:03.587Z,5.20
2023-03-06T11:55:03.544Z,5.20
2023-03-06T11:56:03.510Z,5.30
2023-03-06T11:57:03.565Z,5.20
2023-03-06T11:58:02.696Z,5.20
2023-03-06T11:59:02.810Z,5.20
2023-03-06T12:00:02.874Z,5.30
2023-03-06T12:01:02.818Z,5.20
2023-03-06T12:02:02.876Z,5.20
2023-03-06T12:03:02.813Z,5.20
2023-03-06T12:04:02.925Z,5.20
2023-03-06T12:05:02.976Z,5.20
2023-03-06T12:06:02.824Z,5.20
2023-03-06T12:07:02.817Z,5.20
2023-03-06T12:08:02.779Z,5.10
2023-03-06T12:09:02.872Z,5.10
2023-03-06T12:10:02.811Z,5.10
2023-03-06T12:11:02.738Z,5.10
2023-03-06T12:12:02.731Z,5.10
2023-03-06T12:13:02.942Z,5.10
2023-03-06T12:14:03.674Z,5.10
2023-03-06T12:15:02.783Z,5.00
2023-03-06T12:16:02.807Z,5.00
2023-03-06T12:17:02.799Z,5.00
2023-03-06T12:18:02.857Z,5.00
2023-03-06T12:19:02.805Z,5.00
2023-03-06T12:20:02.869Z,4.90
2023-03-06T12:21:02.886Z,4.90
2023-03-06T12:22:02.978Z,4.80
2023-03-06T12:23:14.797Z,4.80
2023-03-06T12:24:03.006Z,4.80
2023-03-06T12:25:02.894Z,4.80
2023-03-06T12:26:03.005Z,4.80
2023-03-06T12:27:03.132Z,4.70
2023-03-06T12:28:03.125Z,4.70
2023-03-06T12:29:03.049Z,4.70
2023-03-06T12:30:03.033Z,4.70
2023-03-06T12:31:03.284Z,4.70
2023-03-06T12:32:03.441Z,4.70
2023-03-06T12:33:03.381Z,4.70
2023-03-06T12:34:03.406Z,4.70
2023-03-06T12:35:05.793Z,4.70
2023-03-06T12:36:03.538Z,4.80
2023-03-06T12:37:03.557Z,4.80
2023-03-06T12:38:03.665Z,4.80
2023-03-06T12:39:03.539Z,4.80
2023-03-06T12:40:03.568Z,4.80
2023-03-06T12:41:03.534Z,4.80
2023-03-06T12:42:04.988Z,4.90
2023-03-06T12:43:03.619Z,4.90
2023-03-06T12:44:02.717Z,5.00
2023-03-06T12:45:02.862Z,5.00
2023-03-06T12:46:02.898Z,5.10
2023-03-06T12:47:02.832Z,5.10
2023-03-06T12:48:02.972Z,5.20
2023-03-06T12:49:03.452Z,5.20
2023-03-06T12:50:03.604Z,5.30
2023-03-06T12:51:03.601Z,5.30
2023-03-06T12:52:02.665Z,5.40
2023-03-06T12:53:02.687Z,5.40
2023-03-06T12:54:02.693Z,5.40
2023-03-06T12:55:02.738Z,5.50
2023-03-06T12:56:02.785Z,5.50
2023-03-06T12:57:02.839Z,5.50
2023-03-06T12:58:02.836Z,5.50
2023-03-06T12:59:02.941Z,5.50
2023-03-06T13:00:02.977Z,5.60
2023-03-06T13:01:04.695Z,5.60
2023-03-06T13:02:03.194Z,5.60
2023-03-06T13:03:03.327Z,5.60
2023-03-06T13:04:03.235Z,5.60
2023-03-06T13:05:03.319Z,5.60